LELT weather

Lillo Airport
Lillo, Castilla-La Mancha, Spain

Public forecast

Using degrees Celsius for public forecast. Weather courtesy of forecast.io.

Closest aviation weather report (METAR) to Lillo Airport

Closest report is Getafe Air Base, 39.3 nm (72.8 km) NNW. Retrieved 2019/10/14 16:00 UTC (49 minutes ago):

LEGT 141600Z 26032G44KT 9999 -SHRA FEW025 BKN035 FEW040TCU 15/10 Q1014

Closest aviation forecast (TAF) to Lillo Airport

Forecast is more than 12 hours old.

Closest forecast is Getafe Air Base, 39.3 nm (72.8 km) NNW. Retrieved 2018/03/28 12:33 UTC (2 years ago):

TAF LEGT 281100Z 2812/2824 24010KT CAVOK PROB40 TEMPO 2814/2818 27015G25KT TEMPO 2820/2824 28008KT